Time;durP1;ratioP1;P1;durP2;ratioP2;P2;SDS_P1;SDS_P2;PMS_P1;PMS_P2;Temp;Humidity;BMP_temperature;BMP_pressure;BME280_temperature;BME280_humidity;BME280_pressure;Samples;Min_cycle;Max_cycle;Signal;HPM_P1;HPM_P2
2024/02/23 00:01:28;;;;;;;1.30;0.50;;;6.50;99.90;;;;;;5014649;28;20814;-80
2024/02/23 00:03:55;;;;;;;1.30;0.50;;;6.50;99.90;;;;;;5017150;28;20396;-80
2024/02/23 00:06:21;;;;;;;2.33;0.40;;;6.10;99.90;;;;;;5042894;28;20469;-80
2024/02/23 00:08:46;;;;;;;0.70;0.60;;;6.40;99.90;;;;;;5033337;28;20499;-79
2024/02/23 00:11:12;;;;;;;0.65;0.40;;;6.50;99.90;;;;;;5031851;28;20383;-80
2024/02/23 00:13:37;;;;;;;1.27;0.50;;;6.50;99.90;;;;;;5030164;28;20403;-80
2024/02/23 00:16:03;;;;;;;0.93;0.40;;;6.60;99.90;;;;;;5019979;28;20413;-80
2024/02/23 00:18:29;;;;;;;0.80;0.40;;;6.50;99.90;;;;;;5015243;28;20439;-80
2024/02/23 00:20:56;;;;;;;0.80;0.40;;;6.60;99.90;;;;;;5049410;28;20393;-79
2024/02/23 00:23:21;;;;;;;1.75;0.40;;;6.40;99.90;;;;;;5052360;28;20431;-80
2024/02/23 00:25:47;;;;;;;1.20;0.50;;;6.50;99.90;;;;;;5038681;28;20408;-80
2024/02/23 00:28:13;;;;;;;0.70;0.50;;;6.40;99.90;;;;;;5013914;28;20389;-79
2024/02/23 00:30:38;;;;;;;1.20;0.30;;;6.40;99.90;;;;;;5018843;28;20427;-79
2024/02/23 00:33:04;;;;;;;0.70;0.50;;;6.40;99.90;;;;;;5032564;28;20748;-79
2024/02/23 00:35:30;;;;;;;1.38;0.40;;;6.50;99.90;;;;;;5034425;28;20411;-80
2024/02/23 00:37:55;;;;;;;0.70;0.40;;;6.40;99.90;;;;;;5094451;22;20561;-80
2024/02/23 00:40:21;;;;;;;1.20;0.30;;;6.40;99.90;;;;;;5074648;28;20395;-80
2024/02/23 00:42:46;;;;;;;0.40;0.30;;;6.30;99.90;;;;;;5074814;28;20392;-80
2024/02/23 00:45:12;;;;;;;1.30;0.30;;;6.40;99.90;;;;;;5076255;28;20388;-80
2024/02/23 00:47:37;;;;;;;2.10;0.50;;;6.10;99.90;;;;;;5075644;28;20384;-80
2024/02/23 00:50:03;;;;;;;0.50;0.30;;;6.30;99.90;;;;;;5077296;28;20394;-80
2024/02/23 00:52:29;;;;;;;1.00;0.80;;;6.30;99.90;;;;;;5076446;28;20375;-80
2024/02/23 00:54:54;;;;;;;0.93;0.57;;;6.40;99.90;;;;;;5075453;28;20402;-80
2024/02/23 00:57:27;;;;;;;1.10;0.60;;;6.20;99.90;;;;;;5069383;28;20391;-80
2024/02/23 00:59:52;;;;;;;1.00;0.40;;;6.00;99.90;;;;;;5077393;28;20388;-80
2024/02/23 01:02:18;;;;;;;1.60;0.38;;;5.90;99.90;;;;;;5076210;28;20403;-80
2024/02/23 01:04:43;;;;;;;0.82;0.30;;;6.20;99.90;;;;;;5077274;28;20380;-80
2024/02/23 01:07:09;;;;;;;0.50;0.37;;;6.10;99.90;;;;;;5076220;28;20482;-81
2024/02/23 01:09:35;;;;;;;1.23;0.43;;;6.20;99.90;;;;;;5077273;28;20929;-80
2024/02/23 01:12:00;;;;;;;1.20;0.30;;;6.10;99.90;;;;;;5073655;28;20488;-80
2024/02/23 01:14:26;;;;;;;1.37;0.47;;;6.30;99.90;;;;;;5095491;28;20390;-81
2024/02/23 01:16:51;;;;;;;0.50;0.40;;;6.10;99.90;;;;;;5106469;28;20383;-80
2024/02/23 01:19:18;;;;;;;0.70;0.40;;;6.10;99.90;;;;;;5088556;28;20418;-80
2024/02/23 01:21:43;;;;;;;0.70;0.50;;;6.00;99.90;;;;;;5080673;28;20392;-81
2024/02/23 01:24:09;;;;;;;1.23;0.50;;;5.70;99.90;;;;;;5077670;28;20390;-80
2024/02/23 01:26:34;;;;;;;1.15;0.60;;;6.20;99.90;;;;;;5077662;28;20761;-82
2024/02/23 01:29:00;;;;;;;0.75;0.50;;;6.20;99.90;;;;;;5077154;28;20388;-82
2024/02/23 01:31:26;;;;;;;0.77;0.60;;;6.00;99.90;;;;;;5080531;28;20397;-81
2024/02/23 01:33:51;;;;;;;1.10;0.40;;;6.00;99.90;;;;;;5096204;28;20411;-81
2024/02/23 01:36:17;;;;;;;1.52;0.60;;;6.10;99.90;;;;;;5093216;28;20430;-81
2024/02/23 01:38:43;;;;;;;0.80;0.40;;;5.80;99.90;;;;;;5076983;28;20986;-81
2024/02/23 01:41:11;;;;;;;1.70;0.50;;;6.10;99.90;;;;;;5077319;28;20418;-82
2024/02/23 01:43:36;;;;;;;1.08;0.60;;;6.00;99.90;;;;;;5090355;28;20399;-81
2024/02/23 01:46:04;;;;;;;1.83;0.63;;;5.90;99.90;;;;;;5090486;28;20455;-81
2024/02/23 01:48:31;;;;;;;2.00;0.50;;;5.50;99.90;;;;;;5109176;28;20409;-81
2024/02/23 01:50:57;;;;;;;2.50;0.65;;;5.80;99.90;;;;;;5100257;28;20393;-82
2024/02/23 01:53:24;;;;;;;2.60;0.63;;;5.90;99.90;;;;;;5098201;28;20416;-81
2024/02/23 01:55:51;;;;;;;1.50;0.50;;;5.90;99.90;;;;;;5078295;28;20404;-81
2024/02/23 01:58:17;;;;;;;2.60;0.50;;;5.80;99.90;;;;;;5077046;28;20494;-81
2024/02/23 02:00:43;;;;;;;4.03;0.70;;;5.80;99.90;;;;;;5082386;28;20467;-80
2024/02/23 02:03:08;;;;;;;1.90;0.50;;;6.00;99.90;;;;;;5077177;28;20415;-81
2024/02/23 02:05:38;;;;;;;2.83;0.50;;;5.90;99.90;;;;;;5085509;28;20516;-81
2024/02/23 02:08:05;;;;;;;3.67;0.82;;;5.90;99.90;;;;;;5075348;28;20380;-82
2024/02/23 02:10:31;;;;;;;1.73;0.50;;;5.90;99.90;;;;;;5078263;28;20394;-81
2024/02/23 02:13:05;;;;;;;2.10;0.60;;;5.80;99.90;;;;;;5077458;28;20391;-81
2024/02/23 02:15:30;;;;;;;1.53;0.50;;;5.90;99.90;;;;;;5076978;28;20407;-81
2024/02/23 02:17:56;;;;;;;2.63;0.70;;;5.80;99.90;;;;;;5077092;28;20395;-81
2024/02/23 02:20:25;;;;;;;0.90;0.50;;;6.50;99.90;;;;;;5075531;28;20739;-81
2024/02/23 02:22:51;;;;;;;1.55;0.50;;;5.80;99.90;;;;;;5078451;28;20403;-81
2024/02/23 02:25:16;;;;;;;2.17;0.70;;;5.90;99.90;;;;;;5076902;28;20396;-81
2024/02/23 02:27:42;;;;;;;1.90;1.00;;;5.70;99.90;;;;;;5077019;28;20431;-81
2024/02/23 02:30:08;;;;;;;1.70;0.60;;;5.80;99.90;;;;;;5077010;28;21083;-81
2024/02/23 02:32:35;;;;;;;1.80;0.70;;;5.90;99.90;;;;;;5076638;28;20607;-81
2024/02/23 02:35:00;;;;;;;1.23;0.50;;;5.90;99.90;;;;;;5064504;28;20401;-81
2024/02/23 02:37:26;;;;;;;2.60;1.00;;;6.00;99.90;;;;;;5056548;28;20401;-81
2024/02/23 02:39:51;;;;;;;1.60;0.80;;;5.90;99.90;;;;;;5056746;28;20454;-81
2024/02/23 02:42:17;;;;;;;1.00;0.50;;;5.90;99.90;;;;;;5057623;28;20395;-81
2024/02/23 02:44:42;;;;;;;0.70;0.50;;;5.40;99.90;;;;;;5075504;28;20420;-80
2024/02/23 02:47:08;;;;;;;2.50;0.50;;;6.00;99.90;;;;;;5088409;28;20436;-80
2024/02/23 02:49:33;;;;;;;1.00;0.70;;;6.00;99.90;;;;;;5096199;28;20437;-80
2024/02/23 02:51:59;;;;;;;2.03;0.50;;;6.10;99.90;;;;;;5066364;28;20889;-80
2024/02/23 02:54:24;;;;;;;2.70;0.60;;;6.10;99.90;;;;;;5101106;28;20386;-80
2024/02/23 02:56:50;;;;;;;1.20;0.60;;;6.20;99.90;;;;;;5106575;28;20397;-80
2024/02/23 02:59:18;;;;;;;1.33;0.70;;;6.10;99.90;;;;;;5103315;28;21587;-80
2024/02/23 03:01:43;;;;;;;1.90;0.60;;;5.80;99.90;;;;;;5094940;28;20462;-80
2024/02/23 03:04:09;;;;;;;1.70;0.60;;;6.10;99.90;;;;;;5094444;28;20429;-82
2024/02/23 03:06:34;;;;;;;0.93;0.60;;;6.10;99.90;;;;;;5094540;28;20392;-81
2024/02/23 03:09:00;;;;;;;1.70;0.70;;;6.00;99.90;;;;;;5095696;28;20393;-82
2024/02/23 03:11:25;;;;;;;1.60;0.77;;;6.20;99.90;;;;;;5092312;28;20421;-81
2024/02/23 03:13:51;;;;;;;0.98;0.50;;;6.00;99.90;;;;;;5094115;28;20374;-79
2024/02/23 03:16:17;;;;;;;1.10;0.60;;;6.10;99.90;;;;;;5079372;28;20428;-79
2024/02/23 03:18:43;;;;;;;1.00;0.60;;;6.20;99.90;;;;;;5053543;28;20472;-81
2024/02/23 03:21:09;;;;;;;1.80;0.80;;;6.10;99.90;;;;;;5069524;28;20811;-80
2024/02/23 03:23:35;;;;;;;3.70;0.70;;;6.10;99.90;;;;;;5073865;28;20398;-79
2024/02/23 03:26:02;;;;;;;2.00;0.60;;;6.60;99.90;;;;;;5075858;28;20420;-80
2024/02/23 03:28:28;;;;;;;2.65;0.70;;;6.20;99.90;;;;;;5075606;28;20395;-79
2024/02/23 03:30:53;;;;;;;1.80;0.80;;;6.20;99.90;;;;;;5074195;28;20798;-80
2024/02/23 03:33:19;;;;;;;2.33;0.80;;;6.20;99.90;;;;;;5073936;28;20400;-80
2024/02/23 03:35:44;;;;;;;1.37;0.50;;;6.30;99.90;;;;;;5074590;28;20763;-80
2024/02/23 03:38:10;;;;;;;2.43;0.70;;;6.30;99.90;;;;;;5083283;28;20900;-79
2024/02/23 03:40:35;;;;;;;2.20;0.70;;;6.20;99.90;;;;;;5094660;28;20382;-80
2024/02/23 03:43:02;;;;;;;3.08;0.70;;;6.40;99.90;;;;;;5095855;28;20484;-81
2024/02/23 03:45:27;;;;;;;1.33;0.63;;;6.30;99.90;;;;;;5095562;28;20382;-79
2024/02/23 03:47:53;;;;;;;1.95;0.70;;;6.30;99.90;;;;;;5087664;28;20414;-80
2024/02/23 03:50:19;;;;;;;2.08;1.08;;;6.20;99.90;;;;;;5073956;28;20479;-80
2024/02/23 03:52:44;;;;;;;1.90;0.60;;;6.20;99.90;;;;;;5074363;28;20451;-79
2024/02/23 03:55:10;;;;;;;1.90;0.80;;;6.20;99.90;;;;;;5075259;28;20424;-81
2024/02/23 03:57:36;;;;;;;1.63;0.80;;;6.20;99.90;;;;;;5074097;28;20671;-80
2024/02/23 04:00:03;;;;;;;1.13;0.70;;;6.10;99.90;;;;;;5073127;28;20478;-79
2024/02/23 04:02:29;;;;;;;1.13;0.60;;;6.00;99.90;;;;;;5073111;28;20388;-80
2024/02/23 04:04:54;;;;;;;1.45;0.77;;;6.00;99.90;;;;;;5079106;28;20403;-79
2024/02/23 04:07:20;;;;;;;3.27;0.83;;;6.00;99.90;;;;;;5076131;28;20393;-78
2024/02/23 04:09:51;;;;;;;1.90;0.60;;;6.00;99.90;;;;;;5074160;28;20452;-78
2024/02/23 04:12:20;;;;;;;2.20;0.70;;;5.80;99.90;;;;;;5086456;28;20399;-80
2024/02/23 04:14:46;;;;;;;1.90;0.60;;;6.20;99.90;;;;;;5089412;28;20383;-80
2024/02/23 04:17:12;;;;;;;1.80;0.57;;;5.80;99.90;;;;;;5087057;28;20867;-80
2024/02/23 04:19:37;;;;;;;0.90;0.50;;;5.70;99.90;;;;;;5074563;28;20380;-80
2024/02/23 04:22:05;;;;;;;1.90;0.90;;;5.70;99.90;;;;;;5075341;28;20391;-81
2024/02/23 04:24:31;;;;;;;3.10;0.87;;;5.80;99.90;;;;;;5074605;28;20387;-82
2024/02/23 04:26:56;;;;;;;2.83;0.60;;;5.70;99.90;;;;;;5076266;28;20471;-81
2024/02/23 04:29:22;;;;;;;2.77;0.70;;;5.60;99.90;;;;;;5074297;28;20782;-81
2024/02/23 04:31:47;;;;;;;3.50;0.90;;;5.60;99.90;;;;;;5074311;28;20400;-80
2024/02/23 04:34:15;;;;;;;2.60;0.88;;;5.40;99.90;;;;;;5072866;28;20384;-81
2024/02/23 04:36:41;;;;;;;1.70;0.73;;;5.60;99.90;;;;;;5074345;28;20485;-81
2024/02/23 04:39:07;;;;;;;4.72;0.80;;;5.60;99.90;;;;;;5074538;28;20384;-79
2024/02/23 04:41:33;;;;;;;3.43;0.80;;;5.60;99.90;;;;;;5074721;28;20442;-81
2024/02/23 04:44:00;;;;;;;4.32;1.10;;;5.50;99.90;;;;;;5076646;28;20898;-81
2024/02/23 04:46:26;;;;;;;2.30;0.70;;;5.50;99.90;;;;;;5076731;28;20430;-80
2024/02/23 04:48:51;;;;;;;1.42;0.85;;;5.50;99.90;;;;;;5077280;28;20767;-81
2024/02/23 04:51:17;;;;;;;1.90;0.80;;;6.20;99.90;;;;;;5078334;28;20388;-80
2024/02/23 04:53:42;;;;;;;3.00;0.90;;;5.50;99.90;;;;;;5079216;28;20376;-81
2024/02/23 04:56:08;;;;;;;3.35;0.80;;;5.50;99.90;;;;;;5079125;28;20404;-80
2024/02/23 04:58:34;;;;;;;1.95;0.90;;;6.10;99.90;;;;;;5073027;28;20396;-81
2024/02/23 05:01:00;;;;;;;1.70;0.77;;;5.50;99.90;;;;;;5064500;28;20902;-81
2024/02/23 05:03:26;;;;;;;3.30;1.00;;;5.50;99.90;;;;;;5077170;28;20390;-81
2024/02/23 05:05:53;;;;;;;2.83;0.65;;;5.50;99.90;;;;;;5076325;28;20395;-81
2024/02/23 05:08:20;;;;;;;1.95;1.05;;;5.40;99.90;;;;;;5078675;28;20376;-82
2024/02/23 05:10:46;;;;;;;1.10;0.80;;;5.30;99.90;;;;;;5076764;28;20466;-82
2024/02/23 05:13:12;;;;;;;2.05;0.70;;;5.60;99.90;;;;;;5078155;28;20380;-82
2024/02/23 05:15:37;;;;;;;2.00;0.60;;;5.40;99.90;;;;;;5077714;28;20421;-81
2024/02/23 05:18:03;;;;;;;2.97;0.80;;;5.20;99.90;;;;;;5077695;28;20380;-83
2024/02/23 05:20:29;;;;;;;5.45;1.10;;;5.50;99.90;;;;;;5077465;28;20394;-83
2024/02/23 05:22:54;;;;;;;3.30;0.80;;;6.50;99.90;;;;;;5080130;28;20387;-82
2024/02/23 05:25:20;;;;;;;2.15;0.80;;;5.50;99.90;;;;;;5082820;28;20456;-82
2024/02/23 05:27:45;;;;;;;2.65;1.02;;;5.50;99.90;;;;;;5068564;28;20393;-82
2024/02/23 05:30:12;;;;;;;3.60;0.90;;;5.30;99.90;;;;;;5076033;28;20415;-83
2024/02/23 05:32:37;;;;;;;5.10;0.70;;;5.40;99.90;;;;;;5076547;28;20904;-82
2024/02/23 05:35:03;;;;;;;1.90;1.00;;;5.50;99.90;;;;;;5077980;28;20410;-82
2024/02/23 05:37:29;;;;;;;3.60;0.80;;;5.50;99.90;;;;;;5075822;28;20388;-82
2024/02/23 05:39:54;;;;;;;3.20;1.10;;;5.10;99.90;;;;;;5089116;28;20477;-82
2024/02/23 05:42:20;;;;;;;4.10;1.20;;;5.50;99.90;;;;;;5062928;28;20889;-81
2024/02/23 05:44:46;;;;;;;1.70;0.80;;;5.20;99.90;;;;;;5057834;28;20885;-82
2024/02/23 05:47:13;;;;;;;5.00;1.50;;;5.10;99.90;;;;;;5062037;28;20391;-81
2024/02/23 05:49:39;;;;;;;3.92;1.55;;;5.40;99.90;;;;;;5077557;28;20902;-82
2024/02/23 05:52:05;;;;;;;2.07;0.90;;;5.30;99.90;;;;;;5076984;28;20380;-81
2024/02/23 05:54:30;;;;;;;1.70;0.80;;;5.60;99.90;;;;;;5075869;28;20516;-81
2024/02/23 05:56:56;;;;;;;4.50;1.10;;;5.50;99.90;;;;;;5077162;28;20537;-83
2024/02/23 05:59:21;;;;;;;4.18;1.10;;;5.50;99.90;;;;;;5076863;28;20474;-81
2024/02/23 06:01:47;;;;;;;3.10;1.00;;;5.50;99.90;;;;;;5077915;28;20725;-81
2024/02/23 06:04:12;;;;;;;2.10;1.20;;;5.50;99.90;;;;;;5076588;28;20390;-82
2024/02/23 06:06:42;;;;;;;3.33;0.70;;;5.50;99.90;;;;;;5075346;28;20403;-81
2024/02/23 06:09:08;;;;;;;2.72;0.93;;;5.60;99.90;;;;;;5080669;28;20402;-84
2024/02/23 06:11:33;;;;;;;6.35;1.40;;;5.60;99.90;;;;;;5078048;28;20403;-82
2024/02/23 06:13:59;;;;;;;2.92;1.30;;;5.40;99.90;;;;;;5074893;28;20475;-83
2024/02/23 06:16:24;;;;;;;3.30;0.80;;;5.60;99.90;;;;;;5078379;28;20450;-83
2024/02/23 06:18:50;;;;;;;5.57;1.17;;;5.60;99.90;;;;;;5078818;28;20416;-80
2024/02/23 06:21:19;;;;;;;3.30;0.83;;;5.60;99.90;;;;;;5078760;28;20418;-80
2024/02/23 06:23:45;;;;;;;1.80;0.80;;;5.60;99.90;;;;;;5068087;28;20417;-83
2024/02/23 06:26:11;;;;;;;3.33;1.00;;;5.50;99.90;;;;;;5067631;28;20404;-83
2024/02/23 06:28:38;;;;;;;3.00;1.00;;;5.50;99.90;;;;;;5075005;28;20809;-83
2024/02/23 06:31:05;;;;;;;4.68;1.00;;;5.60;99.90;;;;;;5076315;28;20395;-82
2024/02/23 06:33:32;;;;;;;5.88;1.60;;;5.50;99.90;;;;;;5075483;28;20533;-83
2024/02/23 06:35:57;;;;;;;2.60;0.80;;;5.50;99.90;;;;;;5074934;28;20487;-83
2024/02/23 06:38:23;;;;;;;2.67;0.93;;;5.50;99.90;;;;;;5076259;28;20869;-79
2024/02/23 06:40:48;;;;;;;2.40;1.10;;;5.60;99.90;;;;;;5075224;28;20489;-81
2024/02/23 06:43:14;;;;;;;5.15;1.05;;;5.50;99.90;;;;;;5078374;28;20390;-81
2024/02/23 06:45:39;;;;;;;4.82;1.30;;;5.50;99.90;;;;;;5077377;28;20388;-81
2024/02/23 06:48:05;;;;;;;6.20;1.10;;;5.50;99.90;;;;;;5062859;28;20614;-83
2024/02/23 06:50:31;;;;;;;3.13;1.10;;;5.60;99.90;;;;;;5072584;28;20404;-81
2024/02/23 06:52:56;;;;;;;4.90;1.80;;;5.50;99.90;;;;;;5071845;28;20417;-80
2024/02/23 06:55:22;;;;;;;6.03;1.30;;;5.50;99.90;;;;;;5073693;28;20399;-82
2024/02/23 06:57:48;;;;;;;3.53;1.40;;;5.40;99.90;;;;;;5080417;28;20398;-82
2024/02/23 07:00:14;;;;;;;2.70;0.80;;;5.30;99.90;;;;;;5080359;28;20938;-81
2024/02/23 07:02:40;;;;;;;1.77;0.90;;;5.50;99.90;;;;;;5071734;28;20430;-82
2024/02/23 07:05:05;;;;;;;2.83;1.02;;;5.60;99.90;;;;;;5074163;28;20417;-83
2024/02/23 07:07:33;;;;;;;4.47;0.90;;;5.70;99.90;;;;;;5070913;28;20412;-80
2024/02/23 07:09:59;;;;;;;3.13;1.20;;;5.60;99.90;;;;;;5073171;28;20399;-80
2024/02/23 07:12:27;;;;;;;5.35;1.17;;;5.60;99.90;;;;;;5077694;28;20408;-80
2024/02/23 07:14:52;;;;;;;7.40;1.60;;;5.60;99.90;;;;;;5065773;28;20402;-82
2024/02/23 07:17:18;;;;;;;6.00;1.70;;;5.70;99.90;;;;;;5055265;28;20456;-81
2024/02/23 07:19:44;;;;;;;4.05;0.90;;;5.70;99.90;;;;;;5053375;28;20472;-81
2024/02/23 07:22:09;;;;;;;4.30;1.20;;;5.80;99.90;;;;;;5068045;28;20393;-80
2024/02/23 07:24:40;;;;;;;1.33;0.80;;;5.90;99.90;;;;;;5070528;28;20466;-82
2024/02/23 07:27:05;;;;;;;2.47;1.23;;;5.90;99.90;;;;;;5070048;28;20388;-81
2024/02/23 07:29:31;;;;;;;6.77;1.10;;;5.90;99.90;;;;;;5067249;28;20446;-82
2024/02/23 07:31:56;;;;;;;3.80;1.00;;;5.90;99.90;;;;;;5067464;28;20726;-81
2024/02/23 07:34:22;;;;;;;4.80;1.27;;;5.90;99.90;;;;;;5067304;28;20389;-81
2024/02/23 07:36:51;;;;;;;5.03;1.02;;;6.10;99.90;;;;;;5060773;28;20497;-82
2024/02/23 07:39:16;;;;;;;8.00;1.55;;;6.10;99.90;;;;;;5071209;28;20403;-81
2024/02/23 07:41:42;;;;;;;4.93;1.10;;;6.20;99.90;;;;;;5069631;28;20389;-81
2024/02/23 07:44:07;;;;;;;3.60;1.30;;;6.10;99.90;;;;;;5053094;28;20390;-80
2024/02/23 07:46:33;;;;;;;5.50;1.87;;;6.30;99.90;;;;;;5062799;28;20398;-81
2024/02/23 07:48:58;;;;;;;5.60;1.30;;;6.20;99.90;;;;;;5062769;28;20389;-80
2024/02/23 07:51:24;;;;;;;6.95;1.42;;;6.20;99.90;;;;;;5057367;28;20885;-80
2024/02/23 07:53:49;;;;;;;3.42;1.40;;;6.10;99.90;;;;;;5067359;28;20402;-81
2024/02/23 07:56:15;;;;;;;4.60;1.27;;;6.20;99.90;;;;;;5054947;28;20500;-83
2024/02/23 07:58:40;;;;;;;3.50;1.03;;;6.10;99.90;;;;;;5058397;28;20434;-79
2024/02/23 08:01:06;;;;;;;4.23;1.23;;;6.10;99.90;;;;;;5054166;28;20378;-81
2024/02/23 08:03:31;;;;;;;3.40;1.00;;;6.20;99.90;;;;;;5055660;28;20389;-81
2024/02/23 08:05:57;;;;;;;7.28;1.80;;;6.10;99.90;;;;;;5069792;28;20391;-81
2024/02/23 08:08:23;;;;;;;4.90;1.20;;;6.00;99.90;;;;;;5080224;28;20390;-82
2024/02/23 08:10:49;;;;;;;2.50;0.95;;;6.20;99.90;;;;;;5069929;28;20384;-81
2024/02/23 08:13:15;;;;;;;5.37;1.20;;;6.20;99.90;;;;;;5064791;28;20454;-82
2024/02/23 08:15:40;;;;;;;6.10;1.40;;;6.30;99.90;;;;;;5073864;28;20411;-81
2024/02/23 08:18:06;;;;;;;5.23;2.10;;;6.50;99.90;;;;;;5076630;28;20419;-81
2024/02/23 08:20:31;;;;;;;7.00;1.33;;;6.30;99.90;;;;;;5078711;28;20380;-85
2024/02/23 08:22:57;;;;;;;3.57;1.40;;;6.30;99.90;;;;;;5097266;28;20465;-81
2024/02/23 08:25:22;;;;;;;5.63;1.20;;;6.30;99.90;;;;;;5092941;28;20783;-84
2024/02/23 08:27:48;;;;;;;4.40;1.70;;;6.40;99.90;;;;;;5078572;28;20728;-83
2024/02/23 08:30:14;;;;;;;5.28;1.60;;;6.40;99.90;;;;;;5079205;28;20379;-81
2024/02/23 08:32:40;;;;;;;5.10;1.52;;;6.30;99.90;;;;;;5076638;28;20760;-81
2024/02/23 08:35:06;;;;;;;4.03;1.20;;;6.50;99.90;;;;;;5076817;28;20403;-81
2024/02/23 08:37:32;;;;;;;6.70;1.65;;;6.50;99.90;;;;;;5077038;28;20445;-82
2024/02/23 08:39:57;;;;;;;5.45;1.30;;;6.60;99.90;;;;;;5077344;28;20860;-81
2024/02/23 08:42:23;;;;;;;4.68;1.80;;;6.70;99.90;;;;;;5075212;28;20437;-81
2024/02/23 08:44:49;;;;;;;5.75;1.40;;;6.80;99.90;;;;;;5076818;28;20380;-81
2024/02/23 08:47:14;;;;;;;8.07;1.90;;;6.80;99.90;;;;;;5076342;28;20864;-81
2024/02/23 08:49:40;;;;;;;5.50;1.63;;;6.90;99.90;;;;;;5076141;28;20399;-82
2024/02/23 08:52:05;;;;;;;2.93;1.10;;;6.90;99.90;;;;;;5077040;28;20375;-82
2024/02/23 08:54:31;;;;;;;4.50;1.23;;;7.00;99.90;;;;;;5076313;28;20380;-82
2024/02/23 08:56:57;;;;;;;5.80;1.20;;;7.00;99.90;;;;;;5076842;28;20533;-81
2024/02/23 08:59:22;;;;;;;5.77;1.87;;;7.10;99.90;;;;;;5076637;28;20863;-82
2024/02/23 09:01:48;;;;;;;9.27;2.20;;;7.10;99.90;;;;;;5075776;28;20387;-82
2024/02/23 09:04:13;;;;;;;5.00;1.60;;;7.20;99.90;;;;;;5076391;28;20794;-79
2024/02/23 09:06:39;;;;;;;6.00;1.75;;;7.20;99.90;;;;;;5078627;28;20384;-79
2024/02/23 09:09:05;;;;;;;5.15;1.70;;;7.30;99.90;;;;;;5076584;28;20763;-80
2024/02/23 09:11:30;;;;;;;5.57;1.60;;;7.30;99.90;;;;;;5077056;28;20475;-80
2024/02/23 09:13:55;;;;;;;3.60;1.13;;;7.50;99.90;;;;;;5075851;28;20457;-80
2024/02/23 09:16:23;;;;;;;7.00;1.70;;;7.60;99.90;;;;;;5075871;28;20472;-81
2024/02/23 09:18:48;;;;;;;6.22;1.73;;;7.70;99.90;;;;;;5077883;28;20396;-80
2024/02/23 09:21:14;;;;;;;4.00;1.40;;;7.70;99.90;;;;;;5075700;28;20467;-80
2024/02/23 09:23:40;;;;;;;4.03;1.30;;;7.60;99.90;;;;;;5073924;28;20391;-79
2024/02/23 09:26:11;;;;;;;3.00;1.17;;;7.70;99.90;;;;;;5075457;28;20391;-81
2024/02/23 09:28:36;;;;;;;5.22;1.50;;;7.60;99.90;;;;;;5072767;28;20394;-82
2024/02/23 09:31:03;;;;;;;6.00;1.50;;;7.70;99.90;;;;;;5075561;28;20879;-80
2024/02/23 09:33:28;;;;;;;6.03;1.58;;;7.70;99.90;;;;;;5077257;28;20802;-81
2024/02/23 09:35:54;;;;;;;5.23;1.57;;;7.70;99.90;;;;;;5076674;28;20640;-81
2024/02/23 09:38:19;;;;;;;5.90;1.60;;;7.70;99.90;;;;;;5077159;28;20824;-82
2024/02/23 09:40:46;;;;;;;6.87;2.00;;;7.70;99.90;;;;;;5077758;28;20459;-80
2024/02/23 09:43:12;;;;;;;3.50;1.40;;;7.70;99.90;;;;;;5076658;28;20527;-81
2024/02/23 09:45:38;;;;;;;4.55;1.00;;;7.80;99.90;;;;;;5076039;28;20392;-81
2024/02/23 09:48:04;;;;;;;4.47;1.50;;;7.80;99.90;;;;;;5076155;28;20903;-80
2024/02/23 09:50:31;;;;;;;3.20;1.20;;;7.90;99.90;;;;;;5078537;28;20384;-80
2024/02/23 09:52:58;;;;;;;4.18;1.40;;;7.90;99.90;;;;;;5079285;28;20466;-80
2024/02/23 09:55:24;;;;;;;4.15;1.20;;;7.90;99.90;;;;;;5083905;28;20431;-80
2024/02/23 09:57:56;;;;;;;3.60;0.90;;;8.00;99.90;;;;;;5093078;28;20386;-78
2024/02/23 10:00:23;;;;;;;4.75;1.70;;;8.00;99.90;;;;;;5097715;28;20380;-79
2024/02/23 10:02:49;;;;;;;3.05;1.00;;;8.00;99.90;;;;;;5097373;28;20390;-77
2024/02/23 10:05:17;;;;;;;2.73;1.30;;;8.10;99.90;;;;;;5096070;28;20435;-80
2024/02/23 10:07:42;;;;;;;3.13;1.30;;;8.20;99.90;;;;;;5078287;28;20380;-81
2024/02/23 10:10:10;;;;;;;3.38;1.13;;;8.10;99.90;;;;;;5076436;28;20890;-80
2024/02/23 10:12:36;;;;;;;7.20;1.60;;;8.40;99.90;;;;;;5074741;28;20916;-81
2024/02/23 10:15:04;;;;;;;6.43;1.40;;;8.40;99.90;;;;;;5075809;28;20410;-80
2024/02/23 10:17:30;;;;;;;4.45;1.38;;;8.60;99.90;;;;;;5075093;28;20395;-80
2024/02/23 10:19:57;;;;;;;5.28;1.10;;;8.50;99.90;;;;;;5073516;28;20473;-80
2024/02/23 10:22:24;;;;;;;3.40;1.10;;;8.50;99.90;;;;;;5074874;28;20973;-80
2024/02/23 10:24:52;;;;;;;7.10;1.30;;;8.60;99.90;;;;;;5074237;28;20811;-79
2024/02/23 10:27:17;;;;;;;4.05;1.20;;;8.40;99.90;;;;;;5080147;28;20388;-79
2024/02/23 10:29:43;;;;;;;3.75;1.20;;;8.50;99.90;;;;;;5076885;28;20955;-79
2024/02/23 10:32:15;;;;;;;7.97;1.50;;;8.60;99.90;;;;;;5077159;28;20375;-79
2024/02/23 10:34:43;;;;;;;3.30;1.10;;;8.60;99.90;;;;;;5076622;28;20427;-79
2024/02/23 10:37:09;;;;;;;2.50;0.90;;;8.70;99.90;;;;;;5076490;28;20392;-80
2024/02/23 10:39:37;;;;;;;3.88;1.15;;;8.80;99.90;;;;;;5076009;28;20437;-80
2024/02/23 10:42:05;;;;;;;2.80;1.00;;;8.80;99.90;;;;;;5075033;28;20403;-82
2024/02/23 10:44:30;;;;;;;4.30;1.00;;;8.80;99.90;;;;;;5076261;28;20475;-82
2024/02/23 10:46:59;;;;;;;3.38;1.10;;;9.10;99.90;;;;;;5074719;28;20961;-79
2024/02/23 10:49:26;;;;;;;4.00;1.30;;;9.00;99.90;;;;;;5073514;28;20402;-80
2024/02/23 10:51:52;;;;;;;3.28;1.10;;;9.20;99.90;;;;;;5074876;28;20565;-81
2024/02/23 10:54:20;;;;;;;4.20;1.30;;;9.40;99.90;;;;;;5077122;28;20415;-82
2024/02/23 10:56:53;;;;;;;2.67;1.10;;;9.40;99.90;;;;;;5083639;28;20406;-78
2024/02/23 10:59:19;;;;;;;2.60;1.30;;;9.40;99.90;;;;;;5085830;28;20384;-79
2024/02/23 11:01:49;;;;;;;5.78;2.00;;;9.20;99.90;;;;;;5083977;28;20470;-79
2024/02/23 11:04:19;;;;;;;5.00;2.20;;;9.50;99.90;;;;;;5076417;28;20786;-83
2024/02/23 11:06:52;;;;;;;3.05;1.20;;;9.60;99.90;;;;;;5074928;28;20396;-80
2024/02/23 11:09:22;;;;;;;5.25;1.30;;;9.50;99.90;;;;;;5073964;28;20744;-79
2024/02/23 11:11:55;;;;;;;3.83;1.00;;;9.40;99.90;;;;;;5073738;28;20387;-80
2024/02/23 11:14:31;;;;;;;2.80;1.00;;;9.40;99.90;;;;;;5073506;28;20392;-79
2024/02/23 11:16:59;;;;;;;2.70;0.90;;;9.50;99.90;;;;;;5074021;28;20486;-79
2024/02/23 11:19:39;;;;;;;2.03;1.00;;;9.50;99.90;;;;;;5074836;28;20473;-78
2024/02/23 11:22:09;;;;;;;6.32;1.40;;;9.50;99.90;;;;;;5073592;28;20384;-78
2024/02/23 11:24:34;;;;;;;3.55;1.10;;;9.40;99.90;;;;;;5073731;28;20392;-80
2024/02/23 11:27:08;;;;;;;3.37;1.70;;;9.70;99.90;;;;;;5073840;28;20398;-80
2024/02/23 11:29:34;;;;;;;4.32;1.30;;;9.50;99.90;;;;;;5074137;28;20394;-81
2024/02/23 11:32:01;;;;;;;2.03;0.88;;;9.40;99.90;;;;;;5073685;28;20977;-80
2024/02/23 11:34:30;;;;;;;2.78;1.10;;;9.20;99.90;;;;;;5072572;28;20422;-79
2024/02/23 11:36:57;;;;;;;5.87;1.30;;;9.20;99.90;;;;;;5072377;28;20404;-80
2024/02/23 11:39:23;;;;;;;4.10;1.08;;;9.60;99.90;;;;;;5073847;28;20387;-80
2024/02/23 11:41:50;;;;;;;2.50;0.90;;;10.30;99.90;;;;;;5073624;28;20447;-80
2024/02/23 11:44:19;;;;;;;3.53;1.13;;;10.20;99.90;;;;;;5073945;28;20388;-80
2024/02/23 11:46:46;;;;;;;2.30;0.90;;;10.30;99.90;;;;;;5073957;28;20398;-80
2024/02/23 11:49:12;;;;;;;4.07;1.00;;;10.60;99.90;;;;;;5072787;28;20760;-80
2024/02/23 11:51:38;;;;;;;3.40;0.90;;;11.50;99.90;;;;;;5080020;28;20394;-78
2024/02/23 11:54:03;;;;;;;2.97;0.93;;;12.40;99.90;;;;;;5087111;28;20395;-78
2024/02/23 11:56:29;;;;;;;3.43;0.90;;;12.10;99.90;;;;;;5079021;28;20431;-80
2024/02/23 11:58:56;;;;;;;1.98;0.60;;;12.70;99.90;;;;;;5077356;28;20374;-78
2024/02/23 12:01:22;;;;;;;2.22;0.80;;;13.00;99.90;;;;;;5078082;28;20462;-80
2024/02/23 12:03:48;;;;;;;3.83;1.10;;;13.30;99.90;;;;;;5076894;28;20797;-81
2024/02/23 12:06:17;;;;;;;2.60;0.93;;;13.20;99.90;;;;;;5076336;28;20474;-78
2024/02/23 12:08:44;;;;;;;2.22;1.17;;;12.10;99.90;;;;;;5078017;28;20887;-80
2024/02/23 12:11:11;;;;;;;4.10;0.80;;;11.40;99.90;;;;;;5078373;28;20387;-79
2024/02/23 12:13:38;;;;;;;4.03;1.00;;;10.30;99.90;;;;;;5079684;28;20945;-81
2024/02/23 12:16:05;;;;;;;3.80;1.20;;;10.80;99.90;;;;;;5077657;28;20418;-80
2024/02/23 12:18:33;;;;;;;2.97;1.25;;;10.50;99.90;;;;;;5078415;28;20540;-81
2024/02/23 12:21:04;;;;;;;3.83;0.98;;;10.60;99.90;;;;;;5076667;28;20395;-80
2024/02/23 12:23:43;;;;;;;3.63;1.15;;;10.40;99.90;;;;;;5077218;28;20424;-80
2024/02/23 12:26:10;;;;;;;6.05;1.50;;;10.80;99.90;;;;;;5076503;28;20732;-81
2024/02/23 12:28:36;;;;;;;2.50;1.33;;;12.20;99.90;;;;;;5077323;28;20418;-81
2024/02/23 12:31:03;;;;;;;3.93;1.00;;;12.80;99.90;;;;;;5076264;28;20379;-79
2024/02/23 12:33:29;;;;;;;3.47;1.17;;;13.80;99.90;;;;;;5077493;28;20748;-81
2024/02/23 12:35:56;;;;;;;1.93;0.97;;;14.50;99.90;;;;;;5077217;28;20468;-81
2024/02/23 12:38:22;;;;;;;3.65;1.10;;;14.80;99.90;;;;;;5077153;28;20394;-80
2024/02/23 12:40:47;;;;;;;1.60;1.00;;;14.80;99.90;;;;;;5076363;28;20383;-80
2024/02/23 12:43:13;;;;;;;4.05;1.10;;;15.20;99.90;;;;;;5077658;28;20398;-81
2024/02/23 12:45:38;;;;;;;3.77;1.17;;;15.90;99.90;;;;;;5078553;28;20396;-80
2024/02/23 12:48:04;;;;;;;2.92;1.13;;;15.20;99.90;;;;;;5086987;28;20459;-80
2024/02/23 12:50:30;;;;;;;2.80;0.93;;;15.40;99.90;;;;;;5083055;28;20391;-80